createdAt,value
2017-10-17T00:00:03.556Z,0
2017-10-17T00:01:03.570Z,0
2017-10-17T00:02:03.593Z,0
2017-10-17T00:03:03.626Z,0
2017-10-17T00:04:03.632Z,0
2017-10-17T00:05:03.661Z,0
2017-10-17T00:06:04.013Z,0
2017-10-17T00:07:03.700Z,0
2017-10-17T00:08:03.763Z,0
2017-10-17T00:09:03.750Z,0
2017-10-17T00:10:03.772Z,0
2017-10-17T00:11:03.788Z,0
2017-10-17T00:12:03.813Z,0
2017-10-17T00:13:04.200Z,0
2017-10-17T00:14:03.858Z,0
2017-10-17T00:15:03.882Z,0
2017-10-17T00:16:05.125Z,0
2017-10-17T00:17:03.925Z,0
2017-10-17T00:18:03.947Z,0
2017-10-17T00:19:03.974Z,0
2017-10-17T00:20:04.384Z,0
2017-10-17T00:21:04.022Z,0
2017-10-17T00:22:04.037Z,0
2017-10-17T00:23:04.066Z,0
2017-10-17T00:24:04.159Z,0
2017-10-17T00:25:04.104Z,0
2017-10-17T00:26:04.132Z,0
2017-10-17T00:27:04.156Z,0
2017-10-17T00:28:04.170Z,0
2017-10-17T00:29:04.188Z,0
2017-10-17T00:30:04.352Z,0
2017-10-17T00:31:04.236Z,0
2017-10-17T00:32:04.264Z,0
2017-10-17T00:33:04.278Z,0
2017-10-17T00:34:04.318Z,0
2017-10-17T00:35:04.388Z,0
2017-10-17T00:36:04.405Z,0
2017-10-17T00:37:04.371Z,0
2017-10-17T00:38:04.400Z,0
2017-10-17T00:39:04.411Z,0
2017-10-17T00:40:04.436Z,0
2017-10-17T00:41:05.202Z,0
2017-10-17T00:42:04.486Z,0
2017-10-17T00:43:04.507Z,0
2017-10-17T00:44:04.525Z,0
2017-10-17T00:45:04.556Z,0
2017-10-17T00:46:04.966Z,0
2017-10-17T00:47:04.608Z,0
2017-10-17T00:48:04.618Z,0
2017-10-17T00:49:04.644Z,0
2017-10-17T00:50:04.657Z,0
2017-10-17T00:51:04.788Z,0
2017-10-17T00:52:04.698Z,0
2017-10-17T00:53:05.932Z,0
2017-10-17T00:54:04.739Z,0
2017-10-17T00:55:04.760Z,0
2017-10-17T00:56:04.815Z,0
2017-10-17T00:57:04.808Z,0
2017-10-17T00:58:04.892Z,0
2017-10-17T00:59:04.862Z,0
2017-10-17T01:00:04.902Z,0
2017-10-17T01:01:04.903Z,0
2017-10-17T01:02:04.977Z,0
2017-10-17T01:03:04.946Z,0
2017-10-17T01:04:04.960Z,0
2017-10-17T01:05:04.979Z,0
2017-10-17T01:06:05.052Z,0
2017-10-17T01:07:05.024Z,0
2017-10-17T01:08:05.059Z,0
2017-10-17T01:09:05.393Z,0
2017-10-17T01:10:05.095Z,0
2017-10-17T01:11:05.143Z,0
2017-10-17T01:12:05.138Z,0
2017-10-17T01:13:05.178Z,0
2017-10-17T01:14:05.180Z,0
2017-10-17T01:15:05.209Z,0
2017-10-17T01:16:05.592Z,0
2017-10-17T01:17:05.241Z,0
2017-10-17T01:18:05.265Z,0
2017-10-17T01:19:05.284Z,0
2017-10-17T01:20:05.305Z,0
2017-10-17T01:21:05.323Z,0
2017-10-17T01:22:05.350Z,0
2017-10-17T01:23:05.392Z,0
2017-10-17T01:24:05.398Z,0
2017-10-17T01:25:05.411Z,0
2017-10-17T01:26:05.754Z,0
2017-10-17T01:27:05.464Z,0
2017-10-17T01:28:05.475Z,0
2017-10-17T01:29:05.507Z,0
2017-10-17T01:30:05.548Z,0
2017-10-17T01:31:05.622Z,0
2017-10-17T01:32:07.026Z,0
2017-10-17T01:33:05.606Z,0
2017-10-17T01:34:05.603Z,0
2017-10-17T01:35:05.631Z,0
2017-10-17T01:36:05.700Z,0
2017-10-17T01:37:05.677Z,0
2017-10-17T01:38:05.692Z,0
2017-10-17T01:39:06.435Z,0
2017-10-17T01:40:05.742Z,0
2017-10-17T01:41:05.757Z,0
2017-10-17T01:42:05.780Z,0
2017-10-17T01:43:05.810Z,0
2017-10-17T01:44:05.825Z,0
2017-10-17T01:45:05.845Z,0
2017-10-17T01:46:05.869Z,0
2017-10-17T01:47:05.955Z,0
2017-10-17T01:48:05.909Z,0
2017-10-17T01:49:05.936Z,0
2017-10-17T01:50:05.955Z,0
2017-10-17T01:51:05.974Z,0
2017-10-17T01:52:06.369Z,0
2017-10-17T01:53:06.012Z,0
2017-10-17T01:54:06.039Z,0
2017-10-17T01:55:06.070Z,0
2017-10-17T01:56:06.077Z,0
2017-10-17T01:57:06.159Z,0
2017-10-17T01:58:06.179Z,0
2017-10-17T01:59:06.140Z,0
2017-10-17T02:00:06.161Z,0
2017-10-17T02:01:06.190Z,0
2017-10-17T02:02:06.538Z,0
2017-10-17T02:03:06.231Z,0
2017-10-17T02:04:06.398Z,0
2017-10-17T02:05:06.279Z,0
2017-10-17T02:06:06.297Z,0
2017-10-17T02:07:06.350Z,0
2017-10-17T02:08:06.333Z,0
2017-10-17T02:09:06.685Z,0
2017-10-17T02:10:06.379Z,0
2017-10-17T02:11:06.405Z,0
2017-10-17T02:12:06.439Z,0
2017-10-17T02:13:06.502Z,0
2017-10-17T02:14:06.456Z,0
2017-10-17T02:15:06.565Z,0
2017-10-17T02:16:06.504Z,0
2017-10-17T02:17:06.520Z,0
2017-10-17T02:18:06.660Z,0
2017-10-17T02:19:06.570Z,0
2017-10-17T02:20:06.636Z,0
2017-10-17T02:21:06.604Z,0
2017-10-17T02:22:06.632Z,0
2017-10-17T02:23:06.705Z,0
2017-10-17T02:24:07.008Z,0
2017-10-17T02:25:06.713Z,0
2017-10-17T02:26:06.868Z,0
2017-10-17T02:27:06.759Z,0
2017-10-17T02:28:07.214Z,0
2017-10-17T02:29:06.787Z,0
2017-10-17T02:30:06.803Z,0
2017-10-17T02:31:06.819Z,0
2017-10-17T02:32:06.843Z,0
2017-10-17T02:33:06.867Z,0
2017-10-17T02:34:06.895Z,0
2017-10-17T02:35:06.913Z,0
2017-10-17T02:36:06.930Z,0
2017-10-17T02:37:06.949Z,0
2017-10-17T02:38:06.969Z,0
2017-10-17T02:39:06.992Z,0
2017-10-17T02:40:07.164Z,0
2017-10-17T02:41:07.038Z,0
2017-10-17T02:42:07.061Z,0
2017-10-17T02:43:07.085Z,0
2017-10-17T02:44:07.098Z,0
2017-10-17T02:45:07.134Z,0
2017-10-17T02:46:07.145Z,0
2017-10-17T02:47:07.165Z,0
2017-10-17T02:48:07.183Z,0
2017-10-17T02:49:07.207Z,0
2017-10-17T02:50:07.229Z,0
2017-10-17T02:51:07.248Z,0
2017-10-17T02:52:07.265Z,0
2017-10-17T02:53:07.285Z,0
2017-10-17T02:54:07.305Z,0
2017-10-17T02:55:07.656Z,0
2017-10-17T02:56:07.673Z,0
2017-10-17T02:57:07.716Z,0
2017-10-17T02:58:07.396Z,0
2017-10-17T02:59:07.415Z,0
2017-10-17T03:00:07.595Z,0
2017-10-17T03:01:07.455Z,0
2017-10-17T03:02:07.865Z,0
2017-10-17T03:03:07.502Z,0
2017-10-17T03:04:07.522Z,0
2017-10-17T03:05:07.547Z,0
2017-10-17T03:06:07.890Z,0
2017-10-17T03:07:07.584Z,0
2017-10-17T03:08:07.604Z,0
2017-10-17T03:09:07.646Z,0
2017-10-17T03:10:07.679Z,0
2017-10-17T03:11:07.751Z,0
2017-10-17T03:12:07.686Z,0
2017-10-17T03:13:07.728Z,0
2017-10-17T03:14:07.730Z,0
2017-10-17T03:15:08.082Z,0
2017-10-17T03:16:07.777Z,0
2017-10-17T03:17:07.792Z,0
2017-10-17T03:18:07.831Z,0
2017-10-17T03:19:07.855Z,0
2017-10-17T03:20:08.003Z,0
2017-10-17T03:21:07.948Z,0
2017-10-17T03:22:08.022Z,0
2017-10-17T03:23:07.923Z,0
2017-10-17T03:24:07.951Z,0
2017-10-17T03:25:08.300Z,0
2017-10-17T03:26:07.991Z,0
2017-10-17T03:27:08.339Z,0
2017-10-17T03:28:08.389Z,0
2017-10-17T03:29:08.058Z,0
2017-10-17T03:30:08.075Z,0
2017-10-17T03:31:08.419Z,0
2017-10-17T03:32:08.223Z,0
2017-10-17T03:33:08.790Z,0
2017-10-17T03:34:08.308Z,0
2017-10-17T03:35:08.179Z,0
2017-10-17T03:36:08.198Z,0
2017-10-17T03:37:08.219Z,0
2017-10-17T03:38:08.240Z,0
2017-10-17T03:39:08.256Z,0
2017-10-17T03:40:08.336Z,0
2017-10-17T03:41:08.647Z,0
2017-10-17T03:42:08.432Z,0
2017-10-17T03:43:08.341Z,0
2017-10-17T03:44:08.373Z,0
2017-10-17T03:45:08.395Z,0
2017-10-17T03:46:08.799Z,0
2017-10-17T03:47:08.434Z,0
2017-10-17T03:48:08.493Z,0
2017-10-17T03:49:08.474Z,0
2017-10-17T03:50:08.520Z,0
2017-10-17T03:51:08.515Z,0
2017-10-17T03:52:08.855Z,0
2017-10-17T03:53:08.582Z,0
2017-10-17T03:54:08.572Z,0
2017-10-17T03:55:09.005Z,0
2017-10-17T03:56:08.992Z,0
2017-10-17T03:57:08.642Z,0
2017-10-17T03:58:08.749Z,0
2017-10-17T03:59:08.677Z,0
2017-10-17T04:00:08.708Z,0
2017-10-17T04:01:08.716Z,0
2017-10-17T04:02:08.735Z,0
2017-10-17T04:03:09.596Z,0
2017-10-17T04:04:08.856Z,0
2017-10-17T04:05:08.800Z,0
2017-10-17T04:06:08.832Z,0
2017-10-17T04:07:08.843Z,0
2017-10-17T04:08:08.860Z,0
2017-10-17T04:09:08.944Z,0
2017-10-17T04:10:08.910Z,0
2017-10-17T04:11:08.927Z,0
2017-10-17T04:12:08.946Z,0
2017-10-17T04:13:08.977Z,0
2017-10-17T04:14:09.176Z,0
2017-10-17T04:15:09.011Z,0
2017-10-17T04:16:09.032Z,0
2017-10-17T04:17:09.053Z,0
2017-10-17T04:18:09.071Z,0
2017-10-17T04:19:09.423Z,0
2017-10-17T04:20:09.112Z,0
2017-10-17T04:21:09.136Z,0
2017-10-17T04:22:09.484Z,0
2017-10-17T04:23:09.182Z,0
2017-10-17T04:24:09.338Z,0
2017-10-17T04:25:09.540Z,0
2017-10-17T04:26:09.603Z,0
2017-10-17T04:27:09.264Z,0
2017-10-17T04:28:09.336Z,0
2017-10-17T04:29:09.308Z,0
2017-10-17T04:30:09.325Z,0
2017-10-17T04:31:09.571Z,0
2017-10-17T04:32:09.514Z,0
2017-10-17T04:33:09.394Z,0
2017-10-17T04:34:09.730Z,0
2017-10-17T04:35:09.564Z,0
2017-10-17T04:36:09.466Z,0
2017-10-17T04:37:09.473Z,0
2017-10-17T04:38:09.494Z,0
2017-10-17T04:39:09.839Z,0
2017-10-17T04:40:09.529Z,0
2017-10-17T04:41:10.000Z,0
2017-10-17T04:42:09.578Z,0
2017-10-17T04:43:09.601Z,0
2017-10-17T04:44:09.618Z,0
2017-10-17T04:45:10.043Z,0
2017-10-17T04:46:09.670Z,0
2017-10-17T04:47:09.678Z,0
2017-10-17T04:48:09.698Z,0
2017-10-17T04:49:09.729Z,0
2017-10-17T04:50:09.743Z,0
2017-10-17T04:51:09.765Z,0
2017-10-17T04:52:10.111Z,0
2017-10-17T04:53:09.807Z,0
2017-10-17T04:54:09.832Z,0
2017-10-17T04:55:09.850Z,0
2017-10-17T04:56:09.871Z,0
2017-10-17T04:57:09.893Z,0
2017-10-17T04:58:09.956Z,0
2017-10-17T04:59:09.938Z,0
2017-10-17T05:00:09.951Z,0
2017-10-17T05:01:09.973Z,0
2017-10-17T05:02:10.001Z,0
2017-10-17T05:03:10.016Z,0
2017-10-17T05:04:10.032Z,0
2017-10-17T05:05:10.275Z,0
2017-10-17T05:06:10.100Z,4
2017-10-17T05:07:10.105Z,4
2017-10-17T05:08:10.131Z,0
2017-10-17T05:09:10.148Z,4
2017-10-17T05:10:10.262Z,0
2017-10-17T05:11:10.182Z,4
2017-10-17T05:12:10.202Z,4
2017-10-17T05:13:10.220Z,8
2017-10-17T05:14:10.260Z,8
2017-10-17T05:15:10.618Z,8
2017-10-17T05:16:10.404Z,12
2017-10-17T05:17:10.423Z,12
2017-10-17T05:18:10.329Z,16
2017-10-17T05:19:10.674Z,20
2017-10-17T05:20:10.623Z,20
2017-10-17T05:21:10.452Z,28
2017-10-17T05:22:10.414Z,32
2017-10-17T05:23:10.434Z,40
2017-10-17T05:24:10.460Z,48
2017-10-17T05:25:10.475Z,52
2017-10-17T05:26:10.703Z,60
2017-10-17T05:27:10.526Z,72
2017-10-17T05:28:10.571Z,84
2017-10-17T05:29:10.883Z,96
2017-10-17T05:30:10.756Z,112
2017-10-17T05:31:10.929Z,124
2017-10-17T05:32:10.633Z,144
2017-10-17T05:33:10.967Z,164
2017-10-17T05:34:10.664Z,180
2017-10-17T05:35:10.696Z,200
2017-10-17T05:36:10.758Z,220
2017-10-17T05:37:11.068Z,244
2017-10-17T05:38:11.034Z,268
2017-10-17T05:39:11.104Z,292
2017-10-17T05:40:10.795Z,320
2017-10-17T05:41:10.813Z,348
2017-10-17T05:42:11.034Z,372
2017-10-17T05:43:11.177Z,404
2017-10-17T05:44:10.879Z,428
2017-10-17T05:45:11.239Z,460
2017-10-17T05:46:10.917Z,488
2017-10-17T05:47:10.938Z,520
2017-10-17T05:48:11.078Z,552
2017-10-17T05:49:10.978Z,580
2017-10-17T05:50:11.469Z,612
2017-10-17T05:51:11.077Z,644
2017-10-17T05:52:11.041Z,672
2017-10-17T05:53:11.058Z,708
2017-10-17T05:54:11.087Z,740
2017-10-17T05:55:11.108Z,764
2017-10-17T05:56:11.136Z,800
2017-10-17T05:57:11.482Z,828
2017-10-17T05:58:11.190Z,860
2017-10-17T05:59:11.458Z,888
2017-10-17T06:00:11.261Z,920
2017-10-17T06:01:11.566Z,948
2017-10-17T06:02:11.257Z,976
2017-10-17T06:03:11.275Z,1008
2017-10-17T06:04:11.300Z,1040
2017-10-17T06:05:11.324Z,1072
2017-10-17T06:06:11.714Z,1104
2017-10-17T06:07:11.365Z,1136
2017-10-17T06:08:11.383Z,1168
2017-10-17T06:09:11.892Z,1204
2017-10-17T06:10:11.907Z,1232
2017-10-17T06:11:11.721Z,1268
2017-10-17T06:12:11.465Z,1296
2017-10-17T06:13:11.486Z,1332
2017-10-17T06:14:11.508Z,1364
2017-10-17T06:15:11.544Z,1400
2017-10-17T06:16:11.548Z,1432
2017-10-17T06:17:11.579Z,1468
2017-10-17T06:18:11.591Z,1504
2017-10-17T06:19:11.938Z,1536
2017-10-17T06:20:11.952Z,1576
2017-10-17T06:21:11.928Z,1612
2017-10-17T06:22:12.333Z,1652
2017-10-17T06:23:11.699Z,1692
2017-10-17T06:24:11.724Z,1728
2017-10-17T06:25:11.770Z,1768
2017-10-17T06:26:11.770Z,1800
2017-10-17T06:27:12.114Z,1840
2017-10-17T06:28:12.132Z,1876
2017-10-17T06:29:12.164Z,1916
2017-10-17T06:30:11.907Z,1960
2017-10-17T06:31:11.884Z,2000
2017-10-17T06:32:11.922Z,2040
2017-10-17T06:33:11.915Z,2080
2017-10-17T06:34:11.935Z,2124
2017-10-17T06:35:11.955Z,2164
2017-10-17T06:36:11.976Z,2208
2017-10-17T06:37:12.050Z,2248
2017-10-17T06:38:12.023Z,2292
2017-10-17T06:39:12.039Z,2336
2017-10-17T06:40:12.409Z,2380
2017-10-17T06:41:12.410Z,2420
2017-10-17T06:42:12.107Z,2468
2017-10-17T06:43:12.125Z,2512
2017-10-17T06:44:12.565Z,2552
2017-10-17T06:45:12.172Z,2596
2017-10-17T06:46:12.196Z,2644
2017-10-17T06:47:12.222Z,2688
2017-10-17T06:48:12.241Z,2732
2017-10-17T06:49:12.258Z,2776
2017-10-17T06:50:12.682Z,2824
2017-10-17T06:51:12.341Z,2868
2017-10-17T06:52:12.324Z,2908
2017-10-17T06:53:12.349Z,2956
2017-10-17T06:54:12.385Z,3000
2017-10-17T06:55:12.382Z,3048
2017-10-17T06:56:12.463Z,3088
2017-10-17T06:57:12.436Z,3136
2017-10-17T06:58:12.449Z,3176
2017-10-17T06:59:12.475Z,3220
2017-10-17T07:00:12.512Z,3260
2017-10-17T07:01:12.514Z,3296
2017-10-17T07:02:12.546Z,3336
2017-10-17T07:03:12.561Z,3364
2017-10-17T07:04:12.580Z,3400
2017-10-17T07:05:12.606Z,3432
2017-10-17T07:06:12.626Z,3472
2017-10-17T07:07:12.647Z,3508
2017-10-17T07:08:12.674Z,3536
2017-10-17T07:09:12.692Z,3576
2017-10-17T07:10:13.455Z,3616
2017-10-17T07:11:12.784Z,3820
2017-10-17T07:12:13.088Z,3684
2017-10-17T07:13:12.777Z,3728
2017-10-17T07:14:12.803Z,3764
2017-10-17T07:15:12.835Z,3804
2017-10-17T07:16:12.846Z,3836
2017-10-17T07:17:13.195Z,3880
2017-10-17T07:18:12.893Z,3916
2017-10-17T07:19:12.907Z,3952
2017-10-17T07:20:13.534Z,3988
2017-10-17T07:21:12.956Z,4028
2017-10-17T07:22:12.989Z,4068
2017-10-17T07:23:13.018Z,4108
2017-10-17T07:24:13.019Z,4144
2017-10-17T07:25:13.047Z,4180
2017-10-17T07:26:13.121Z,4224
2017-10-17T07:27:13.101Z,4260
2017-10-17T07:28:13.123Z,4296
2017-10-17T07:29:13.135Z,4336
2017-10-17T07:30:13.489Z,4368
2017-10-17T07:31:13.189Z,4408
2017-10-17T07:32:13.543Z,4440
2017-10-17T07:33:13.228Z,4472
2017-10-17T07:34:13.260Z,4504
2017-10-17T07:35:13.272Z,4536
2017-10-17T07:36:13.296Z,4572
2017-10-17T07:37:13.323Z,4604
2017-10-17T07:38:13.352Z,4636
2017-10-17T07:39:13.363Z,4668
2017-10-17T07:40:13.391Z,4704
2017-10-17T07:41:13.417Z,4732
2017-10-17T07:42:13.438Z,4616
2017-10-17T07:43:13.466Z,4792
2017-10-17T07:44:13.480Z,4836
2017-10-17T07:45:13.498Z,4852
2017-10-17T07:46:13.529Z,4880
2017-10-17T07:47:13.557Z,4908
2017-10-17T07:48:13.898Z,4944
2017-10-17T07:49:13.599Z,4964
2017-10-17T07:50:13.620Z,4992
2017-10-17T07:51:13.988Z,5016
2017-10-17T07:52:13.995Z,5044
2017-10-17T07:53:13.696Z,5072
2017-10-17T07:54:13.720Z,5100
2017-10-17T07:55:13.748Z,5128
2017-10-17T07:56:13.759Z,5156
2017-10-17T07:57:13.785Z,5188
2017-10-17T07:58:13.811Z,5224
2017-10-17T07:59:13.834Z,5252
2017-10-17T08:00:13.907Z,5284
2017-10-17T08:01:13.879Z,5308
2017-10-17T08:02:13.899Z,5340
2017-10-17T08:03:13.932Z,5368
2017-10-17T08:04:13.950Z,5404
2017-10-17T08:05:13.977Z,5428
2017-10-17T08:06:14.007Z,5460
2017-10-17T08:07:14.029Z,5492
2017-10-17T08:08:14.048Z,5524
2017-10-17T08:09:14.073Z,5556
2017-10-17T08:10:14.088Z,5584
2017-10-17T08:11:14.118Z,5616
2017-10-17T08:12:14.135Z,5652
2017-10-17T08:13:14.163Z,5680
2017-10-17T08:14:14.185Z,5716
2017-10-17T08:15:14.213Z,5736
2017-10-17T08:16:14.233Z,5768
2017-10-17T08:17:14.264Z,5800
2017-10-17T08:18:14.302Z,5832
2017-10-17T08:19:14.360Z,5852
2017-10-17T08:20:14.337Z,5884
2017-10-17T08:21:14.360Z,5920
2017-10-17T08:22:14.701Z,5964
2017-10-17T08:23:14.404Z,5988
2017-10-17T08:24:14.437Z,6024
2017-10-17T08:25:14.460Z,6048
2017-10-17T08:26:14.919Z,6088
2017-10-17T08:27:14.498Z,6120
2017-10-17T08:28:14.868Z,6148
2017-10-17T08:29:14.560Z,6168
2017-10-17T08:30:14.589Z,6196
2017-10-17T08:31:14.603Z,6228
2017-10-17T08:32:14.639Z,6256
2017-10-17T08:33:15.002Z,6276
2017-10-17T08:34:14.677Z,6300
2017-10-17T08:35:14.711Z,6332
2017-10-17T08:36:14.741Z,6352
2017-10-17T08:37:14.799Z,6384
2017-10-17T08:38:14.772Z,6408
2017-10-17T08:39:14.801Z,6440
2017-10-17T08:40:14.829Z,6464
2017-10-17T08:41:14.860Z,6484
2017-10-17T08:42:14.873Z,6504
2017-10-17T08:43:14.926Z,6528
2017-10-17T08:44:14.933Z,6544
2017-10-17T08:45:15.300Z,6568
2017-10-17T08:46:14.982Z,6592
2017-10-17T08:47:15.324Z,6268
2017-10-17T08:48:15.361Z,6632
2017-10-17T08:49:15.054Z,6644
2017-10-17T08:50:15.084Z,6668
2017-10-17T08:51:15.106Z,6688
2017-10-17T08:52:15.185Z,6704
2017-10-17T08:53:15.154Z,6720
2017-10-17T08:54:15.189Z,6732
2017-10-17T08:55:15.574Z,6748
2017-10-17T08:56:15.317Z,6768
2017-10-17T08:57:15.265Z,6788
2017-10-17T08:58:15.291Z,6808
2017-10-17T08:59:15.309Z,6820
2017-10-17T09:00:15.400Z,6832
2017-10-17T09:01:15.396Z,6848
2017-10-17T09:02:15.396Z,6868
2017-10-17T09:03:15.410Z,6888
2017-10-17T09:04:15.768Z,6908
2017-10-17T09:05:15.793Z,6928
2017-10-17T09:06:15.492Z,6944
2017-10-17T09:07:15.524Z,6968
2017-10-17T09:08:15.545Z,6984
2017-10-17T09:09:15.617Z,6992
2017-10-17T09:10:15.591Z,7012
2017-10-17T09:11:15.967Z,7028
2017-10-17T09:12:15.650Z,7012
2017-10-17T09:13:15.753Z,7060
2017-10-17T09:14:15.707Z,7072
2017-10-17T09:15:16.056Z,7088
2017-10-17T09:16:15.748Z,7104
2017-10-17T09:17:15.780Z,7120
2017-10-17T09:18:15.803Z,7128
2017-10-17T09:19:15.834Z,7148
2017-10-17T09:20:15.853Z,7164
2017-10-17T09:21:15.885Z,7184
2017-10-17T09:22:15.933Z,7192
2017-10-17T09:23:15.934Z,7200
2017-10-17T09:24:16.014Z,7208
2017-10-17T09:25:15.986Z,7208
2017-10-17T09:26:16.014Z,7244
2017-10-17T09:27:16.368Z,7268
2017-10-17T09:28:16.067Z,7284
2017-10-17T09:29:16.146Z,7304
2017-10-17T09:30:16.140Z,7320
2017-10-17T09:31:16.159Z,7332
2017-10-17T09:32:16.177Z,7296
2017-10-17T09:33:16.197Z,7352
2017-10-17T09:34:16.230Z,7380
2017-10-17T09:35:16.258Z,7392
2017-10-17T09:36:16.286Z,7432
2017-10-17T09:37:16.310Z,7452
2017-10-17T09:38:16.368Z,7468
2017-10-17T09:39:16.414Z,7488
2017-10-17T09:40:16.391Z,7504
2017-10-17T09:41:16.412Z,7512
2017-10-17T09:42:16.444Z,7528
2017-10-17T09:43:16.472Z,7540
2017-10-17T09:44:16.504Z,7572
2017-10-17T09:45:16.862Z,7588
2017-10-17T09:46:16.878Z,7600
2017-10-17T09:47:16.583Z,7620
2017-10-17T09:48:16.615Z,7640
2017-10-17T09:49:16.633Z,7668
2017-10-17T09:50:16.661Z,7656
2017-10-17T09:51:16.685Z,7720
2017-10-17T09:52:16.713Z,7752
2017-10-17T09:53:16.748Z,7812
2017-10-17T09:54:16.828Z,10704
2017-10-17T09:55:17.118Z,19168
2017-10-17T09:56:16.820Z,30176
2017-10-17T09:57:16.850Z,36576
2017-10-17T09:58:16.884Z,36288
2017-10-17T09:59:16.907Z,37952
2017-10-17T10:00:16.935Z,37664
2017-10-17T10:01:16.961Z,37824
2017-10-17T10:02:16.986Z,39936
2017-10-17T10:03:17.018Z,39872
2017-10-17T10:04:17.049Z,38592
2017-10-17T10:05:17.072Z,38784
2017-10-17T10:06:17.113Z,39008
2017-10-17T10:07:17.142Z,39392
2017-10-17T10:08:17.159Z,40768
2017-10-17T10:09:17.192Z,41760
2017-10-17T10:10:17.273Z,40832
2017-10-17T10:11:17.252Z,41856
2017-10-17T10:12:17.288Z,43296
2017-10-17T10:13:17.316Z,43232
2017-10-17T10:14:17.341Z,43776
2017-10-17T10:15:17.377Z,43520
2017-10-17T10:16:17.416Z,44064
2017-10-17T10:17:17.441Z,46144
2017-10-17T10:18:17.471Z,47008
2017-10-17T10:19:17.834Z,47008
2017-10-17T10:20:17.545Z,49120
2017-10-17T10:21:17.567Z,48704
2017-10-17T10:22:17.607Z,48640
2017-10-17T10:23:17.635Z,47552
2017-10-17T10:24:17.686Z,46784
2017-10-17T10:25:17.705Z,50176
2017-10-17T10:26:17.748Z,49984
2017-10-17T10:27:18.104Z,48832
2017-10-17T10:28:17.863Z,48224
2017-10-17T10:29:17.843Z,48352
2017-10-17T10:30:17.875Z,50080
2017-10-17T10:31:17.908Z,52768
2017-10-17T10:32:17.946Z,50144
2017-10-17T10:33:17.978Z,50912
2017-10-17T10:34:18.010Z,48768
2017-10-17T10:35:18.052Z,46848
2017-10-17T10:36:18.429Z,48352
2017-10-17T10:37:18.118Z,50048
2017-10-17T10:38:18.153Z,49664
2017-10-17T10:39:18.525Z,46560
2017-10-17T10:40:18.549Z,51360
2017-10-17T10:41:18.280Z,53664
2017-10-17T10:42:18.316Z,51136
2017-10-17T10:43:18.333Z,49856
2017-10-17T10:44:18.420Z,43040
2017-10-17T10:45:18.396Z,44192
2017-10-17T10:46:18.437Z,38880
2017-10-17T10:47:18.472Z,36352
2017-10-17T10:48:18.518Z,38080
2017-10-17T10:49:18.546Z,38848
2017-10-17T10:50:18.578Z,39936
2017-10-17T10:51:18.615Z,41760
2017-10-17T10:52:18.663Z,48320
2017-10-17T10:53:19.013Z,51264
2017-10-17T10:54:18.730Z,44640
2017-10-17T10:55:18.760Z,38464
2017-10-17T10:56:18.799Z,36992
2017-10-17T10:57:18.839Z,38496
2017-10-17T10:58:18.878Z,39136
2017-10-17T10:59:18.907Z,38560
2017-10-17T11:00:18.951Z,38560
2017-10-17T11:01:18.994Z,38592
2017-10-17T11:02:19.019Z,40864
2017-10-17T11:03:19.054Z,42720
2017-10-17T11:04:19.107Z,43616
2017-10-17T11:05:19.454Z,45408
2017-10-17T11:06:19.508Z,40576
2017-10-17T11:07:19.210Z,35264
2017-10-17T11:08:19.241Z,35104
2017-10-17T11:09:19.275Z,39712
2017-10-17T11:10:19.320Z,46048
2017-10-17T11:11:19.354Z,49632
2017-10-17T11:12:19.398Z,50944
2017-10-17T11:13:19.431Z,52064
2017-10-17T11:14:19.468Z,53536
2017-10-17T11:15:19.509Z,53344
2017-10-17T11:16:19.543Z,51040
2017-10-17T11:17:19.590Z,49344
2017-10-17T11:18:19.623Z,49344
2017-10-17T11:19:19.672Z,48416
2017-10-17T11:20:19.742Z,48192
2017-10-17T11:21:19.743Z,49280
2017-10-17T11:22:19.774Z,48352
2017-10-17T11:23:19.812Z,50240
2017-10-17T11:24:19.854Z,53888
2017-10-17T11:25:19.887Z,52448
2017-10-17T11:26:19.924Z,51552
2017-10-17T11:27:20.321Z,55776
2017-10-17T11:28:20.011Z,59680
2017-10-17T11:29:20.035Z,59392
2017-10-17T11:30:20.080Z,57088
2017-10-17T11:31:20.118Z,56960
2017-10-17T11:32:20.491Z,58720
2017-10-17T11:33:20.527Z,59872
2017-10-17T11:34:20.247Z,60320
2017-10-17T11:35:20.274Z,55360
2017-10-17T11:36:20.324Z,64416
2017-10-17T11:37:20.348Z,64832
2017-10-17T11:38:20.438Z,64128
2017-10-17T11:39:20.421Z,64320
2017-10-17T11:40:20.460Z,62656
2017-10-17T11:41:20.508Z,58368
2017-10-17T11:42:20.865Z,61088
2017-10-17T11:43:20.919Z,69536
2017-10-17T11:44:20.619Z,73088
2017-10-17T11:45:20.989Z,69088
2017-10-17T11:46:20.695Z,65632
2017-10-17T11:47:20.737Z,66144
2017-10-17T11:48:20.775Z,66848
2017-10-17T11:49:20.821Z,68512
2017-10-17T11:50:20.859Z,72256
2017-10-17T11:51:20.896Z,73696
2017-10-17T11:52:20.930Z,68224
2017-10-17T11:53:20.973Z,67008
2017-10-17T11:54:21.017Z,66336
2017-10-17T11:55:21.376Z,67776
2017-10-17T11:56:21.138Z,74208
2017-10-17T11:57:21.130Z,71296
2017-10-17T11:58:21.495Z,70464
2017-10-17T11:59:21.215Z,75072
2017-10-17T12:00:21.580Z,75968
2017-10-17T12:01:21.291Z,76096
2017-10-17T12:02:21.331Z,74176
2017-10-17T12:03:21.383Z,66272
2017-10-17T12:04:21.415Z,72000
2017-10-17T12:05:21.459Z,72512
2017-10-17T12:06:21.826Z,76096
2017-10-17T12:07:21.538Z,77120
2017-10-17T12:08:21.911Z,80736
2017-10-17T12:09:21.617Z,80160
2017-10-17T12:10:21.656Z,76416
2017-10-17T12:11:21.756Z,79552
2017-10-17T12:12:21.740Z,80864
2017-10-17T12:13:21.784Z,74656
2017-10-17T12:14:21.819Z,76384
2017-10-17T12:15:21.861Z,71616
2017-10-17T12:16:21.904Z,69920
2017-10-17T12:17:21.937Z,71488
2017-10-17T12:18:22.339Z,69248
2017-10-17T12:19:22.022Z,76416
2017-10-17T12:20:22.081Z,73536
2017-10-17T12:21:22.103Z,65120
2017-10-17T12:22:22.143Z,56416
2017-10-17T12:23:22.182Z,52032
2017-10-17T12:24:22.223Z,59520
2017-10-17T12:25:22.263Z,65440
2017-10-17T12:26:22.353Z,76288
2017-10-17T12:27:22.352Z,84160
2017-10-17T12:28:22.385Z,84640
2017-10-17T12:29:22.425Z,82976
2017-10-17T12:30:22.472Z,69504
2017-10-17T12:31:22.537Z,81920
2017-10-17T12:32:22.879Z,73984
2017-10-17T12:33:22.591Z,76320
2017-10-17T12:34:22.631Z,79040
2017-10-17T12:35:23.321Z,79104
2017-10-17T12:36:22.711Z,78528
2017-10-17T12:37:22.760Z,75424
2017-10-17T12:38:22.799Z,73152
2017-10-17T12:39:22.833Z,72032
2017-10-17T12:40:22.874Z,69088
2017-10-17T12:41:22.921Z,62592
2017-10-17T12:42:22.966Z,59424
2017-10-17T12:43:23.000Z,51584
2017-10-17T12:44:23.036Z,45152
2017-10-17T12:45:23.088Z,43904
2017-10-17T12:46:23.119Z,50880
2017-10-17T12:47:23.162Z,59744
2017-10-17T12:48:23.219Z,67040
2017-10-17T12:49:23.244Z,62464
2017-10-17T12:50:23.291Z,57344
2017-10-17T12:51:23.331Z,66272
2017-10-17T12:52:23.686Z,64800
2017-10-17T12:53:23.405Z,64384
2017-10-17T12:54:23.446Z,62976
2017-10-17T12:55:23.518Z,65632
2017-10-17T12:56:23.857Z,68704
2017-10-17T12:57:23.621Z,67136
2017-10-17T12:58:23.605Z,68832
2017-10-17T12:59:23.654Z,69920
2017-10-17T13:00:23.687Z,69216
2017-10-17T13:01:23.739Z,70176
2017-10-17T13:02:23.778Z,65792
2017-10-17T13:03:23.818Z,62528
2017-10-17T13:04:23.853Z,61856
2017-10-17T13:05:23.892Z,66656
2017-10-17T13:06:23.936Z,66848
2017-10-17T13:07:23.976Z,66016
2017-10-17T13:08:24.017Z,66624
2017-10-17T13:09:24.066Z,64896
2017-10-17T13:10:24.422Z,64160
2017-10-17T13:11:24.138Z,61280
2017-10-17T13:12:24.534Z,60768
2017-10-17T13:13:24.231Z,56096
2017-10-17T13:14:24.312Z,65184
2017-10-17T13:15:24.634Z,72096
2017-10-17T13:16:24.670Z,74368
2017-10-17T13:17:24.400Z,83904
2017-10-17T13:18:24.433Z,85120
2017-10-17T13:19:24.468Z,83232
2017-10-17T13:20:24.517Z,80000
2017-10-17T13:21:24.875Z,75520
2017-10-17T13:22:24.594Z,69856
2017-10-17T13:23:24.647Z,78528
2017-10-17T13:24:24.675Z,89568
2017-10-17T13:25:24.723Z,81504
2017-10-17T13:26:24.763Z,72640
2017-10-17T13:27:24.798Z,67680
2017-10-17T13:28:24.843Z,68288
2017-10-17T13:29:24.934Z,65984
2017-10-17T13:30:24.924Z,65152
2017-10-17T13:31:25.620Z,59168
2017-10-17T13:32:25.018Z,59872
2017-10-17T13:33:25.043Z,62080
2017-10-17T13:34:25.098Z,79264
2017-10-17T13:35:25.128Z,81376
2017-10-17T13:36:25.495Z,83488
2017-10-17T13:37:25.209Z,78304
2017-10-17T13:38:25.573Z,72960
2017-10-17T13:39:25.620Z,61216
2017-10-17T13:40:25.330Z,65728
2017-10-17T13:41:25.695Z,62880
2017-10-17T13:42:25.740Z,58176
2017-10-17T13:43:25.450Z,57824
2017-10-17T13:44:25.499Z,56736